sensor_id;sensor_type;location;lat;lon;timestamp;temperature;humidity
40630;DHT22;26329;40.388;-3.710;2022-10-28T00:06:16;18.80;58.40
40630;DHT22;26329;40.388;-3.710;2022-10-28T00:16:20;18.80;58.70
40630;DHT22;26329;40.388;-3.710;2022-10-28T00:26:28;18.80;58.60
40630;DHT22;26329;40.388;-3.710;2022-10-28T00:36:35;18.80;58.90
40630;DHT22;26329;40.388;-3.710;2022-10-28T00:46:44;18.90;59.10
40630;DHT22;26329;40.388;-3.710;2022-10-28T00:56:49;18.80;59.60
40630;DHT22;26329;40.388;-3.710;2022-10-28T01:06:52;18.80;60.00
40630;DHT22;26329;40.388;-3.710;2022-10-28T01:37:52;18.50;61.00
40630;DHT22;26329;40.388;-3.710;2022-10-28T01:58:01;18.30;61.70
40630;DHT22;26329;40.388;-3.710;2022-10-28T02:18:47;18.20;63.60
40630;DHT22;26329;40.388;-3.710;2022-10-28T02:39:03;17.90;63.70
40630;DHT22;26329;40.388;-3.710;2022-10-28T02:49:09;17.90;63.40
40630;DHT22;26329;40.388;-3.710;2022-10-28T02:59:13;17.90;63.30
40630;DHT22;26329;40.388;-3.710;2022-10-28T03:09:15;17.80;63.70
40630;DHT22;26329;40.388;-3.710;2022-10-28T03:19:17;17.80;63.20
40630;DHT22;26329;40.388;-3.710;2022-10-28T03:29:19;17.80;63.70
40630;DHT22;26329;40.388;-3.710;2022-10-28T03:39:24;17.70;64.00
40630;DHT22;26329;40.388;-3.710;2022-10-28T03:49:26;17.50;64.10
40630;DHT22;26329;40.388;-3.710;2022-10-28T03:59:30;17.50;63.50
40630;DHT22;26329;40.388;-3.710;2022-10-28T04:09:32;17.30;63.80
40630;DHT22;26329;40.388;-3.710;2022-10-28T04:19:36;17.20;63.90
40630;DHT22;26329;40.388;-3.710;2022-10-28T04:29:39;17.10;64.10
40630;DHT22;26329;40.388;-3.710;2022-10-28T04:39:41;17.00;64.30
40630;DHT22;26329;40.388;-3.710;2022-10-28T04:49:43;16.90;64.60
40630;DHT22;26329;40.388;-3.710;2022-10-28T04:59:45;16.90;64.40
40630;DHT22;26329;40.388;-3.710;2022-10-28T05:09:47;16.80;64.80
40630;DHT22;26329;40.388;-3.710;2022-10-28T05:19:49;16.50;64.60
40630;DHT22;26329;40.388;-3.710;2022-10-28T05:29:51;16.30;64.70
40630;DHT22;26329;40.388;-3.710;2022-10-28T05:39:53;16.30;65.30
40630;DHT22;26329;40.388;-3.710;2022-10-28T05:49:55;16.20;65.20
40630;DHT22;26329;40.388;-3.710;2022-10-28T05:59:57;16.10;64.80
40630;DHT22;26329;40.388;-3.710;2022-10-28T06:10:00;15.90;64.80
40630;DHT22;26329;40.388;-3.710;2022-10-28T06:20:03;15.90;64.50
40630;DHT22;26329;40.388;-3.710;2022-10-28T06:30:06;15.80;64.40
40630;DHT22;26329;40.388;-3.710;2022-10-28T06:40:08;15.90;64.50
40630;DHT22;26329;40.388;-3.710;2022-10-28T06:50:11;15.90;64.70
40630;DHT22;26329;40.388;-3.710;2022-10-28T07:00:13;16.00;64.10
40630;DHT22;26329;40.388;-3.710;2022-10-28T07:10:15;16.10;63.60
40630;DHT22;26329;40.388;-3.710;2022-10-28T07:20:17;15.90;63.60
40630;DHT22;26329;40.388;-3.710;2022-10-28T07:30:18;15.90;63.70
40630;DHT22;26329;40.388;-3.710;2022-10-28T07:40:21;16.10;63.40
40630;DHT22;26329;40.388;-3.710;2022-10-28T07:50:23;16.30;63.10
40630;DHT22;26329;40.388;-3.710;2022-10-28T08:00:25;16.30;62.70
40630;DHT22;26329;40.388;-3.710;2022-10-28T08:10:26;16.40;62.30
40630;DHT22;26329;40.388;-3.710;2022-10-28T08:20:28;16.60;61.70
40630;DHT22;26329;40.388;-3.710;2022-10-28T08:30:30;16.60;61.90
40630;DHT22;26329;40.388;-3.710;2022-10-28T08:50:50;17.70;65.80
40630;DHT22;26329;40.388;-3.710;2022-10-28T09:00:55;18.00;62.40
40630;DHT22;26329;40.388;-3.710;2022-10-28T09:11:02;18.00;59.00
40630;DHT22;26329;40.388;-3.710;2022-10-28T09:21:17;19.10;59.50
40630;DHT22;26329;40.388;-3.710;2022-10-28T09:41:33;20.40;53.20
40630;DHT22;26329;40.388;-3.710;2022-10-28T10:01:45;20.30;48.60
40630;DHT22;26329;40.388;-3.710;2022-10-28T10:11:49;20.00;48.10
40630;DHT22;26329;40.388;-3.710;2022-10-28T10:21:53;20.10;47.00
40630;DHT22;26329;40.388;-3.710;2022-10-28T10:32:13;20.30;46.80
40630;DHT22;26329;40.388;-3.710;2022-10-28T10:42:15;20.70;45.10
40630;DHT22;26329;40.388;-3.710;2022-10-28T10:52:21;21.00;43.70
40630;DHT22;26329;40.388;-3.710;2022-10-28T11:02:30;21.40;43.70
40630;DHT22;26329;40.388;-3.710;2022-10-28T11:12:34;21.70;42.10
40630;DHT22;26329;40.388;-3.710;2022-10-28T11:22:50;22.00;44.40
40630;DHT22;26329;40.388;-3.710;2022-10-28T11:33:10;22.30;42.70
40630;DHT22;26329;40.388;-3.710;2022-10-28T12:04:41;22.80;42.40
40630;DHT22;26329;40.388;-3.710;2022-10-28T12:15:54;22.90;41.50
40630;DHT22;26329;40.388;-3.710;2022-10-28T12:25:34;23.10;40.10
40630;DHT22;26329;40.388;-3.710;2022-10-28T12:35:42;23.30;40.00
40630;DHT22;26329;40.388;-3.710;2022-10-28T12:45:47;23.40;40.10
40630;DHT22;26329;40.388;-3.710;2022-10-28T12:55:57;23.50;39.80
40630;DHT22;26329;40.388;-3.710;2022-10-28T13:26:34;23.90;39.40
40630;DHT22;26329;40.388;-3.710;2022-10-28T13:36:42;24.00;39.30
40630;DHT22;26329;40.388;-3.710;2022-10-28T13:47:25;24.20;38.60
40630;DHT22;26329;40.388;-3.710;2022-10-28T13:57:36;24.40;38.00
40630;DHT22;26329;40.388;-3.710;2022-10-28T14:07:59;24.50;38.40
40630;DHT22;26329;40.388;-3.710;2022-10-28T14:18:04;24.60;38.10
40630;DHT22;26329;40.388;-3.710;2022-10-28T14:49:19;24.70;39.40
40630;DHT22;26329;40.388;-3.710;2022-10-28T14:59:26;24.60;39.40
40630;DHT22;26329;40.388;-3.710;2022-10-28T15:09:32;24.50;39.50
40630;DHT22;26329;40.388;-3.710;2022-10-28T15:19:35;24.60;38.50
40630;DHT22;26329;40.388;-3.710;2022-10-28T15:29:37;24.40;40.40
40630;DHT22;26329;40.388;-3.710;2022-10-28T15:39:39;24.30;40.50
40630;DHT22;26329;40.388;-3.710;2022-10-28T15:49:43;24.20;39.80
40630;DHT22;26329;40.388;-3.710;2022-10-28T15:59:46;24.10;39.70
40630;DHT22;26329;40.388;-3.710;2022-10-28T16:09:48;23.90;40.40
40630;DHT22;26329;40.388;-3.710;2022-10-28T16:19:56;23.90;40.20
40630;DHT22;26329;40.388;-3.710;2022-10-28T16:29:59;23.80;40.20
40630;DHT22;26329;40.388;-3.710;2022-10-28T16:40:01;23.60;40.30
40630;DHT22;26329;40.388;-3.710;2022-10-28T16:50:02;23.50;41.30
40630;DHT22;26329;40.388;-3.710;2022-10-28T17:00:04;23.50;42.10
40630;DHT22;26329;40.388;-3.710;2022-10-28T17:10:07;23.40;43.90
40630;DHT22;26329;40.388;-3.710;2022-10-28T17:20:09;23.20;42.90
40630;DHT22;26329;40.388;-3.710;2022-10-28T17:30:12;23.10;43.90
40630;DHT22;26329;40.388;-3.710;2022-10-28T17:40:14;22.90;44.90
40630;DHT22;26329;40.388;-3.710;2022-10-28T17:50:16;22.80;45.00
40630;DHT22;26329;40.388;-3.710;2022-10-28T18:00:17;22.90;49.10
40630;DHT22;26329;40.388;-3.710;2022-10-28T18:10:19;23.10;56.40
40630;DHT22;26329;40.388;-3.710;2022-10-28T18:20:21;23.00;52.40
40630;DHT22;26329;40.388;-3.710;2022-10-28T18:30:23;23.00;48.20
40630;DHT22;26329;40.388;-3.710;2022-10-28T18:40:25;22.70;44.70
40630;DHT22;26329;40.388;-3.710;2022-10-28T18:50:27;22.80;51.80
40630;DHT22;26329;40.388;-3.710;2022-10-28T19:00:28;23.00;52.10
40630;DHT22;26329;40.388;-3.710;2022-10-28T19:10:30;22.70;45.70
40630;DHT22;26329;40.388;-3.710;2022-10-28T19:20:32;21.70;47.30
40630;DHT22;26329;40.388;-3.710;2022-10-28T19:30:33;21.20;48.30
40630;DHT22;26329;40.388;-3.710;2022-10-28T19:40:36;21.10;53.30
40630;DHT22;26329;40.388;-3.710;2022-10-28T19:50:37;22.20;53.00
40630;DHT22;26329;40.388;-3.710;2022-10-28T20:00:39;22.30;49.60
40630;DHT22;26329;40.388;-3.710;2022-10-28T20:10:40;20.90;50.60
40630;DHT22;26329;40.388;-3.710;2022-10-28T20:20:42;20.50;51.20
40630;DHT22;26329;40.388;-3.710;2022-10-28T20:30:57;20.30;51.40
40630;DHT22;26329;40.388;-3.710;2022-10-28T20:40:59;20.10;52.40
40630;DHT22;26329;40.388;-3.710;2022-10-28T20:51:01;19.90;54.00
40630;DHT22;26329;40.388;-3.710;2022-10-28T21:01:10;19.60;54.70
40630;DHT22;26329;40.388;-3.710;2022-10-28T21:11:14;19.80;55.10
40630;DHT22;26329;40.388;-3.710;2022-10-28T21:21:18;19.50;55.10
40630;DHT22;26329;40.388;-3.710;2022-10-28T21:31:21;19.40;55.60
40630;DHT22;26329;40.388;-3.710;2022-10-28T21:41:24;19.20;56.30
40630;DHT22;26329;40.388;-3.710;2022-10-28T21:51:26;19.20;56.70
40630;DHT22;26329;40.388;-3.710;2022-10-28T22:01:28;19.20;57.40
40630;DHT22;26329;40.388;-3.710;2022-10-28T22:11:30;19.20;57.20
40630;DHT22;26329;40.388;-3.710;2022-10-28T22:21:35;19.10;57.70
40630;DHT22;26329;40.388;-3.710;2022-10-28T22:31:40;18.90;58.30
40630;DHT22;26329;40.388;-3.710;2022-10-28T22:41:42;18.80;58.50
40630;DHT22;26329;40.388;-3.710;2022-10-28T22:51:44;18.80;59.00
40630;DHT22;26329;40.388;-3.710;2022-10-28T23:01:46;18.80;58.90
40630;DHT22;26329;40.388;-3.710;2022-10-28T23:11:48;18.70;59.50
40630;DHT22;26329;40.388;-3.710;2022-10-28T23:21:49;18.60;59.50
40630;DHT22;26329;40.388;-3.710;2022-10-28T23:31:51;18.60;59.40
40630;DHT22;26329;40.388;-3.710;2022-10-28T23:41:52;18.60;58.40
40630;DHT22;26329;40.388;-3.710;2022-10-28T23:51:54;18.40;59.00
